Terminal Aerodrome Forecast
Issued by NWS

Home | Current Version | Previous Version | Text Only | Print | Product List | Glossary On
Versions: 1 2 3 4 5 6 7 8 9 10 11 12 13 14 15 16 17 18 19 20 21 22 23 24 25 26 27 28
515
FTUS43 KGRB 220520
TAFMTW
TAF
KMTW 220520Z 2206/2306 00000KT 1/2SM FG OVC002
      TEMPO 2206/2210 3/4SM BR
     FM221400 19007KT 2SM BR FEW002
     FM221500 19008KT 5SM BR FEW250
     FM221600 18010G17KT P6SM FEW250
     FM230000 19006KT P6SM SKC=

USA.gov is the U.S. government's official web portal to all federal, state and local government web resources and services.